Latest Weather Observations for Wilcannia Airport

IDN60801

Issued at 12:32 pm EST Sunday 19 April 2015 (issued every 30 minutes, with the page automatically refreshed every 10 minutes)

About weather observations | Map of weather stations | Latest weather observations for NSW | Other Formats
Station Details ID: 046012 Name: WILCANNIA AERODROME AWS Lat: -31.52 Lon: 143.38 Height: 94.3 m
Data from the previous 72 hours. | See also: Recent months for locations in New South Wales
Date/Time
EST
Temp
°C
App
Temp
°C
Dew
Point
Rel
Hum
%
Delta-T
°C
Wind Press
QNH
hPa
Press
MSL
hPa
Rain
since 9 am
mm
Dir
 
Spd
km/h
Gust
km/h
Spd
kts
Gust
kts
19/12:30pm 17.1 10.0 3.8 41 6.2 S 30 41 16 22 1027.0 1026.7 0.0
19/12:21pm 16.6 9.1 3.3 41 6.1 S 32 50 17 27 1027.2 1027.0 0.0
19/12:00pm 16.8 9.3 4.2 43 5.9 S 33 46 18 25 1027.4 1027.2 0.0
19/11:30am 15.5 8.8 5.7 52 4.7 S 30 43 16 23 1027.5 1027.3 0.0
19/11:00am 15.8 8.8 6.0 52 4.7 S 32 43 17 23 1027.2 1027.0 0.0
19/10:30am 15.3 8.2 5.5 52 4.7 S 32 43 17 23 1027.3 1027.1 0.0
19/10:00am 15.1 8.4 7.2 59 3.9 S 32 41 17 22 1027.1 1026.9 0.0
19/09:30am 14.2 7.5 7.3 63 3.4 S 32 46 17 25 1026.9 1026.6 0.0
19/09:00am 13.8 7.2 7.8 67 3.0 S 32 44 17 24 1026.6 1026.3 0.8
19/08:30am 13.1 6.9 8.0 71 2.5 S 30 43 16 23 1025.9 1025.6 0.8
19/08:00am 13.3 7.3 8.8 74 2.3 S 30 44 16 24 1025.2 1024.9 0.8
19/07:30am 12.8 8.5 9.4 80 1.7 SSW 22 32 12 17 1024.6 1024.3 0.8
19/07:00am 12.8 6.9 8.9 77 2.0 S 30 41 16 22 1024.0 1023.7 0.8
19/06:30am 13.0 8.4 9.6 80 1.7 SSW 24 35 13 19 1023.3 1023.1 0.8
19/06:00am 13.2 8.0 10.2 82 1.6 SSW 28 39 15 21 1022.7 1022.5 0.8
19/05:36am 13.2 8.2 10.9 86 1.2 SSW 28 46 15 25 1022.2 1022.0 0.8
19/05:30am 13.3 8.5 11.5 89 1.0 SSW 28 39 15 21 1022.2 1022.0 0.8
19/05:06am 13.8 9.2 12.2 90 0.9 SSW 28 48 15 26 1021.5 1021.3 0.8
19/05:00am 14.2 10.5 12.6 90 0.9 SSW 24 35 13 19 1021.3 1021.1 0.8
19/04:30am 13.7 10.6 12.1 90 0.9 SW 20 30 11 16 1020.7 1020.5 0.8
19/04:00am 13.0 11.0 11.6 91 0.7 WSW 13 17 7 9 1020.5 1020.3 0.8
19/03:30am 12.4 11.2 11.5 94 0.5 W 9 13 5 7 1020.2 1020.0 0.8
19/03:00am 12.0 10.7 11.1 94 0.5 W 9 11 5 6 1020.3 1020.1 0.8
19/02:30am 12.0 10.7 11.1 94 0.5 W 9 11 5 6 1020.4 1020.2 0.8
19/02:00am 11.7 9.9 10.8 94 0.5 W 11 13 6 7 1020.5 1020.3 0.8
19/01:30am 11.9 10.1 10.8 93 0.6 W 11 11 6 6 1020.5 1020.3 0.8
19/01:00am 12.3 10.7 11.4 94 0.5 W 11 13 6 7 1020.5 1020.3 0.6
19/12:30am 12.2 10.9 11.1 93 0.6 W 9 11 5 6 1020.5 1020.3 0.6
19/12:00am 12.7 11.5 11.6 93 0.6 W 9 11 5 6 1020.5 1020.3 0.6
 
Date/Time
EST
Temp
°C
App
Temp
°C
Dew
Point
Rel
Hum
%
Delta-T
°C
Wind Press
QNH
hPa
Press
MSL
hPa
Rain
since 9 am
mm
Dir
 
Spd
km/h
Gust
km/h
Spd
kts
Gust
kts
18/11:30pm 13.0 11.5 11.9 93 0.6 W 11 13 6 7 1020.6 1020.4 0.6
18/11:00pm 13.3 12.6 11.9 91 0.8 W 7 9 4 5 1020.5 1020.3 0.6
18/10:30pm 14.0 12.7 12.6 91 0.8 WSW 11 13 6 7 1020.5 1020.3 0.6
18/10:00pm 14.6 13.3 12.5 87 1.1 WSW 11 13 6 7 1020.3 1020.1 0.6
18/09:30pm 16.0 14.4 12.7 81 1.8 SW 13 19 7 10 1020.0 1019.8 0.6
18/09:00pm 16.0 14.6 13.5 85 1.4 SW 13 17 7 9 1019.7 1019.5 0.6
18/08:30pm 15.9 15.3 13.4 85 1.4 SW 9 13 5 7 1019.5 1019.3 0.6
18/08:00pm 15.9 15.2 13.2 84 1.5 SSW 9 13 5 7 1019.0 1018.8 0.6
18/07:30pm 15.9 14.8 13.2 84 1.5 SSW 11 15 6 8 1018.4 1018.2 0.6
18/07:00pm 15.8 14.0 13.3 85 1.4 SSW 15 22 8 12 1018.4 1018.2 0.6
18/06:30pm 15.6 14.2 13.3 86 1.3 SSW 13 17 7 9 1017.7 1017.4 0.6
18/06:00pm 15.7 14.3 13.4 86 1.3 SSW 13 19 7 10 1017.6 1017.3 0.6
18/05:30pm 16.6 14.1 13.5 82 1.8 SW 19 26 10 14 1017.2 1016.9 0.6
18/05:00pm 16.7 13.7 13.6 82 1.8 SSW 22 30 12 16 1017.0 1016.7 0.6
18/04:30pm 16.6 13.3 14.1 85 1.4 SW 24 35 13 19 1016.9 1016.6 0.6
18/04:00pm 16.8 13.4 14.8 88 1.2 SW 26 35 14 19 1016.8 1016.5 0.6
18/03:30pm 17.2 13.8 14.7 85 1.4 SW 26 41 14 22 1016.6 1016.3 0.6
18/03:00pm 17.5 15.4 15.1 86 1.4 SW 20 33 11 18 1016.3 1016.0 0.6
18/02:30pm 17.3 14.5 15.3 88 1.2 SW 24 33 13 18 1016.0 1015.7 0.6
18/02:00pm 18.4 16.3 16.2 87 1.3 SW 22 30 12 16 1015.7 1015.4 0.6
18/01:30pm 18.9 17.1 16.9 88 1.2 SW 22 30 12 16 1016.0 1015.7 0.6
18/01:00pm 18.5 17.0 16.8 90 1.0 SW 20 24 11 13 1016.2 1015.9 0.6
18/12:30pm 17.9 16.0 16.6 92 0.8 WSW 22 30 12 16 1016.6 1016.3 0.6
18/12:00pm 19.9 18.8 17.7 87 1.4 W 20 26 11 14 1016.6 1016.3 0.2
18/11:30am 19.4 18.4 17.5 89 1.2 NW 19 24 10 13 1016.8 1016.5 0.2
18/11:00am 19.1 19.3 17.6 91 0.9 NW 13 19 7 10 1016.7 1016.4 0.2
18/10:30am 18.6 18.6 17.1 91 0.9 NNW 13 19 7 10 1016.2 1015.9 0.2
18/10:00am 18.3 17.5 17.0 92 0.8 NW 17 26 9 14 1016.9 1016.6 0.2
18/09:30am 18.5 16.9 17.5 94 0.6 NNE 22 30 12 16 1016.0 1015.7 0.2
18/09:00am 18.4 17.1 17.2 93 0.7 NNE 20 26 11 14 1015.5 1015.2 12.4
18/08:30am 18.5 17.8 17.3 93 0.7 N 17 24 9 13 1015.9 1015.6 12.0
18/08:00am 18.7 17.6 17.7 94 0.6 N 20 28 11 15 1016.4 1016.1 10.6
18/07:30am 18.7 18.2 17.7 94 0.6 NNW 17 24 9 13 1016.0 1015.7 9.6
18/07:00am 18.7 18.9 17.7 94 0.6 NNW 13 17 7 9 1015.7 1015.4 8.4
18/06:30am 18.7 18.8 17.5 93 0.7 N 13 22 7 12 1015.3 1015.0 7.8
18/06:00am 18.6 18.7 17.4 93 0.7 N 13 19 7 10 1015.0 1014.7 6.6
18/05:30am 18.7 19.2 17.5 93 0.7 N 11 13 6 7 1015.0 1014.7 5.2
18/05:00am 18.7 19.3 17.7 94 0.6 NNE 11 13 6 7 1014.8 1014.5 4.2
18/04:30am 18.7 19.6 17.5 93 0.7 NNE 9 13 5 7 1014.7 1014.4 3.4
18/04:00am 18.7 20.0 17.5 93 0.7 NNE 7 9 4 5 1014.9 1014.6 2.8
18/03:30am 18.8 20.1 17.5 92 0.8 NNW 7 9 4 5 1015.0 1014.7 2.2
18/03:00am 18.8 20.3 17.5 92 0.8 WSW 6 9 3 5 1015.1 1014.8 1.8
18/02:30am 18.9 19.9 17.7 93 0.7 SW 9 13 5 7 1015.3 1015.0 1.4
18/02:00am 19.2 19.9 18.0 93 0.7 SW 11 13 6 7 1015.8 1015.5 1.0
18/01:30am 19.4 20.2 18.2 93 0.7 WSW 11 15 6 8 1016.1 1015.8 0.8
18/01:00am 19.4 20.5 18.1 92 0.8 W 9 13 5 7 1016.2 1015.9 0.6
18/12:30am 19.7 20.5 18.2 91 0.9 WSW 11 15 6 8 1016.1 1015.8 0.6
18/12:00am 19.9 20.3 18.2 90 1.1 W 13 15 7 8 1016.4 1016.1 0.4
 
Date/Time
EST
Temp
°C
App
Temp
°C
Dew
Point
Rel
Hum
%
Delta-T
°C
Wind Press
QNH
hPa
Press
MSL
hPa
Rain
since 9 am
mm
Dir
 
Spd
km/h
Gust
km/h
Spd
kts
Gust
kts
17/11:30pm 20.1 21.6 18.0 88 1.3 NW 7 9 4 5 1016.2 1015.9 0.2
17/11:00pm 20.0 20.7 18.0 88 1.2 NW 11 15 6 8 1016.3 1016.0 0.2
17/10:30pm 20.1 21.3 17.3 84 1.7 SW 7 9 4 5 1015.4 1015.1 0.0
17/10:00pm 21.0 22.1 16.6 76 2.7 ENE 6 7 3 4 1015.6 1015.3 0.0
17/09:30pm 21.2 21.7 16.6 75 2.8 NE 9 11 5 6 1016.0 1015.7 0.0
17/09:00pm 21.5 21.4 16.0 71 3.3 ESE 11 13 6 7 1015.4 1015.1 0.0
17/08:30pm 22.2 22.5 15.1 64 4.2 SSE 7 13 4 7 1015.5 1015.2 0.0
17/08:00pm 22.3 22.3 15.2 64 4.2 SSW 9 13 5 7 1015.2 1014.9 0.0
17/07:30pm 22.7 21.9 15.0 61 4.6 SSW 13 17 7 9 1014.4 1014.1 0.0
17/07:00pm 22.6 22.4 15.7 65 4.2 SSE 11 13 6 7 1014.4 1014.1 0.0
17/06:30pm 22.7 22.9 15.8 65 4.2 S 9 15 5 8 1014.5 1014.2 0.0
17/06:00pm 23.5 22.8 15.3 60 4.9 SSW 13 22 7 12 1014.2 1013.9 0.0
17/05:30pm 25.0 22.6 13.9 50 6.6 SSW 19 26 10 14 1013.9 1013.6 0.0
17/05:00pm 25.5 23.4 14.6 51 6.5 SSW 19 24 10 13 1013.7 1013.4 0.0
17/04:30pm 26.2 22.6 14.3 48 7.1 SSW 26 33 14 18 1013.7 1013.4 0.0
17/04:00pm 29.0 25.2 11.1 33 10.3 WSW 22 32 12 17 1013.4 1013.1 0.0
17/03:30pm 31.1 28.3 9.9 27 12.1 NW 15 22 8 12 1013.2 1012.9 0.0
17/03:00pm 31.3 27.6 10.1 27 12.1 NNW 20 30 11 16 1013.2 1012.9 0.0
17/02:30pm 30.8 26.7 10.2 28 11.8 NNW 22 30 12 16 1013.7 1013.4 0.0
17/02:00pm 31.3 28.1 10.1 27 12.1 NNW 17 26 9 14 1014.0 1013.7 0.0
17/01:30pm 30.6 26.1 10.0 28 11.7 N 24 32 13 17 1014.6 1014.3 0.0
17/01:00pm 30.7 27.0 10.1 28 11.7 N 20 33 11 18 1015.3 1015.0 0.0
17/12:30pm 29.2 25.7 10.8 32 10.5 NNE 20 32 11 17 1015.7 1015.4 0.0
17/12:00pm 30.0 25.5 11.5 32 10.7 NE 26 43 14 23 1016.5 1016.2 0.0
17/11:30am 27.3 22.3 10.9 36 9.3 ENE 28 39 15 21 1017.0 1016.7 0.0
17/11:00am 27.1 21.6 12.0 39 8.7 ENE 32 43 17 23 1017.7 1017.4 0.0
17/10:30am 25.7 20.4 13.2 46 7.3 ENE 33 43 18 23 1018.1 1017.9 0.0
17/10:00am 23.8 19.1 14.2 55 5.7 E 32 43 17 23 1018.7 1018.5 0.0
17/09:30am 23.0 18.8 14.6 59 5.0 E 30 37 16 20 1019.4 1019.2 0.0
17/09:00am 20.9 18.0 15.2 70 3.4 E 24 32 13 17 1019.6 1019.4 1.2
17/08:30am 18.6 17.0 15.1 80 2.1 ESE 17 22 9 12 1019.8 1019.6 1.2
17/08:00am 17.9 15.7 14.8 82 1.8 ESE 20 28 11 15 1019.6 1019.4 1.2
17/07:30am 17.3 16.3 14.6 84 1.6 SE 13 19 7 10 1019.5 1019.3 1.2
17/07:00am 16.7 15.3 14.5 87 1.3 SE 15 19 8 10 1019.7 1019.5 1.2
17/06:30am 16.7 15.3 14.5 87 1.3 SSE 15 20 8 11 1020.0 1019.8 1.2
17/06:00am 16.6 15.5 14.4 87 1.3 S 13 17 7 9 1020.0 1019.8 1.2
17/05:30am 16.5 15.8 14.3 87 1.3 SSE 11 17 6 9 1019.4 1019.2 1.2
17/05:00am 16.4 15.3 14.4 88 1.1 SE 13 19 7 10 1019.1 1018.9 1.0
17/04:30am 16.4 14.0 14.4 88 1.1 SSE 20 28 11 15 1019.0 1018.8 1.0
17/04:00am 16.7 13.6 14.5 87 1.3 SE 24 33 13 18 1019.4 1019.2 1.0
17/03:30am 17.0 14.8 14.5 85 1.4 SSE 19 26 10 14 1020.2 1020.0 0.8
17/03:00am 16.9 15.2 14.7 87 1.3 S 17 20 9 11 1020.8 1020.6 0.8
17/02:30am 16.8 15.1 14.6 87 1.3 SSE 17 22 9 12 1020.6 1020.4 0.8
17/02:00am 16.9 15.9 14.7 87 1.3 S 13 19 7 10 1021.2 1021.0 0.6
17/01:30am 18.4 16.3 13.5 73 2.8 SSE 17 26 9 14 1021.0 1020.8 0.0
17/01:00am 18.9 16.3 13.1 69 3.3 SSE 19 26 10 14 1021.5 1021.3 0.0
17/12:30am 19.2 16.9 12.9 67 3.6 S 17 24 9 13 1021.5 1021.3 0.0
17/12:00am 19.4 17.4 12.7 65 3.8 SSE 15 20 8 11 1021.5 1021.3 0.0
 
Date/Time
EST
Temp
°C
App
Temp
°C
Dew
Point
Rel
Hum
%
Delta-T
°C
Wind Press
QNH
hPa
Press
MSL
hPa
Rain
since 9 am
mm
Dir
 
Spd
km/h
Gust
km/h
Spd
kts
Gust
kts
16/11:30pm 19.7 17.6 12.5 63 4.1 SE 15 20 8 11 1021.7 1021.5 0.0
16/11:00pm 19.5 17.9 12.7 65 3.8 SE 13 17 7 9 1022.1 1021.9 0.0
16/10:30pm 19.5 18.4 13.2 67 3.6 SE 11 15 6 8 1022.6 1022.4 0.0
16/10:00pm 19.6 18.6 13.3 67 3.6 SSE 11 13 6 7 1022.5 1022.3 0.0
16/09:30pm 19.9 18.5 13.4 66 3.7 S 13 17 7 9 1022.5 1022.3 0.0
16/09:00pm 20.4 18.5 13.1 63 4.2 S 15 20 8 11 1022.2 1022.0 0.0
16/08:30pm 20.7 18.5 13.2 62 4.3 S 17 24 9 13 1022.2 1022.0 0.0
16/08:00pm 20.8 19.0 13.3 62 4.3 S 15 20 8 11 1022.0 1021.8 0.0
16/07:30pm 21.0 19.2 13.4 62 4.4 SSE 15 19 8 10 1021.9 1021.7 0.0
16/07:00pm 21.3 19.5 13.2 60 4.6 SSE 15 20 8 11 1021.5 1021.3 0.0
16/06:30pm 21.6 18.8 13.2 59 4.8 SSE 20 28 11 15 1021.3 1021.1 0.0
16/06:00pm 21.9 19.2 13.0 57 5.1 S 19 28 10 15 1021.2 1021.0 0.0
16/05:30pm 22.7 19.7 12.6 53 5.8 S 20 30 11 16 1021.2 1021.0 0.0
16/05:00pm 23.2 20.2 12.5 51 6.1 S 20 28 11 15 1021.0 1020.8 0.0
16/04:30pm 23.6 20.6 12.6 50 6.3 SSE 20 28 11 15 1021.0 1020.8 0.0
16/04:00pm 23.7 20.5 12.0 48 6.6 SSE 20 28 11 15 1021.0 1020.8 0.0
16/03:30pm 23.4 20.4 12.7 51 6.2 S 20 28 11 15 1021.3 1021.1 0.0
16/03:00pm 24.3 21.3 11.9 45 7.0 S 19 28 10 15 1021.5 1021.3 0.0
16/02:30pm 24.6 20.3 10.8 42 7.7 S 24 33 13 18 1021.3 1021.1 0.0
16/02:00pm 26.3 21.4 10.0 36 9.1 SSW 26 35 14 19 1021.1 1020.9 0.0
16/01:30pm 27.5 23.8 10.2 34 9.7 SSW 20 32 11 17 1021.3 1021.1 0.0
16/01:00pm 27.8 24.2 10.5 34 9.8 SSW 20 30 11 16 1021.4 1021.2 0.0

Other Formats:

Comma delimited format used in spreadsheet applications
http://www.bom.gov.au/fwo/IDN60801/IDN60801.95695.axf

JavaScript Object Notation format (JSON) in row-major order
http://www.bom.gov.au/fwo/IDN60801/IDN60801.95695.json